Time,TemperatureF,DewpointF,PressureIn,WindDirection,WindDirectionDegrees,WindSpeedMPH,WindSpeedGustMPH,Humidity,HourlyPrecipIn,Conditions,Clouds,dailyrainin,SolarRadiationWatts/m^2,SoftwareType,DateUTC
2013-01-12 00:02:00,29.5,27.7,30.35,ESE,105,0.0,2.0,93,0.00,,,0.00,0,Wunderground v.1.15,2013-01-12 08:02:00,
2013-01-12 00:07:00,29.5,27.7,30.35,ESE,105,1.0,2.0,93,0.00,,,0.00,0,Wunderground v.1.15,2013-01-12 08:07:00,
2013-01-12 00:12:00,29.5,27.7,30.35,ESE,105,1.0,2.0,93,0.00,,,0.00,0,Wunderground v.1.15,2013-01-12 08:12:00,
2013-01-12 00:17:00,29.5,27.7,30.35,ESE,105,1.0,2.0,93,0.00,,,0.00,0,Wunderground v.1.15,2013-01-12 08:17:00,
2013-01-12 00:22:00,29.5,28.0,30.35,ESE,105,0.0,2.0,94,0.00,,,0.00,0,Wunderground v.1.15,2013-01-12 08:22:00,
2013-01-12 00:27:00,29.5,28.0,30.35,ESE,105,0.0,2.0,94,0.00,,,0.00,0,Wunderground v.1.15,2013-01-12 08:27:00,
2013-01-12 00:32:00,29.6,28.1,30.36,ESE,105,1.0,2.0,94,0.00,,,0.00,0,Wunderground v.1.15,2013-01-12 08:32:00,
2013-01-12 00:37:00,29.6,28.1,30.36,ESE,105,0.0,2.0,94,0.00,,,0.00,0,Wunderground v.1.15,2013-01-12 08:37:00,
2013-01-12 00:42:00,29.6,28.1,30.36,ESE,105,0.0,2.0,94,0.00,,,0.00,0,Wunderground v.1.15,2013-01-12 08:42:00,
2013-01-12 00:47:00,29.5,28.0,30.36,ESE,105,0.0,2.0,94,0.00,,,0.00,0,Wunderground v.1.15,2013-01-12 08:47:00,
2013-01-12 00:52:00,29.5,28.0,30.36,ESE,105,1.0,2.0,94,0.00,,,0.00,0,Wunderground v.1.15,2013-01-12 08:52:00,
2013-01-12 00:57:00,29.3,27.5,30.36,ESE,104,1.0,3.0,93,0.00,,,0.00,0,Wunderground v.1.15,2013-01-12 08:57:00,
2013-01-12 01:02:00,29.2,27.4,30.36,ESE,104,0.0,1.0,93,0.00,,,0.00,0,Wunderground v.1.15,2013-01-12 09:02:00,
2013-01-12 01:07:00,29.1,27.6,30.36,ESE,104,1.0,2.0,94,0.00,,,0.00,0,Wunderground v.1.15,2013-01-12 09:07:00,
2013-01-12 01:12:00,28.9,27.1,30.36,ESE,104,1.0,3.0,93,0.00,,,0.00,0,Wunderground v.1.15,2013-01-12 09:12:00,
2013-01-12 01:17:00,28.6,26.8,30.36,East,101,2.0,3.0,93,0.00,,,0.00,0,Wunderground v.1.15,2013-01-12 09:17:00,
2013-01-12 01:22:00,28.4,26.9,30.36,East,100,1.0,2.0,94,0.00,,,0.00,0,Wunderground v.1.15,2013-01-12 09:22:00,
2013-01-12 01:27:00,28.3,26.8,30.36,East,97,2.0,2.0,94,0.00,,,0.00,0,Wunderground v.1.15,2013-01-12 09:27:00,
2013-01-12 01:32:00,28.4,26.9,30.36,East,88,1.0,2.0,94,0.00,,,0.00,0,Wunderground v.1.15,2013-01-12 09:32:00,
2013-01-12 01:37:00,28.4,26.9,30.36,East,88,1.0,2.0,94,0.00,,,0.00,0,Wunderground v.1.15,2013-01-12 09:37:00,
2013-01-12 01:42:00,28.4,26.9,30.36,East,88,0.0,2.0,94,0.00,,,0.00,0,Wunderground v.1.15,2013-01-12 09:42:00,
2013-01-12 01:47:00,28.4,26.9,30.36,East,88,0.0,2.0,94,0.00,,,0.00,0,Wunderground v.1.15,2013-01-12 09:47:00,
2013-01-12 01:52:00,28.3,26.8,30.36,East,88,2.0,2.0,94,0.00,,,0.00,0,Wunderground v.1.15,2013-01-12 09:52:00,
2013-01-12 01:57:00,28.2,26.7,30.36,East,88,1.0,2.0,94,0.00,,,0.00,0,Wunderground v.1.15,2013-01-12 09:57:00,
2013-01-12 02:02:00,28.1,26.6,30.36,East,88,0.0,2.0,94,0.00,,,0.00,0,Wunderground v.1.15,2013-01-12 10:02:00,
2013-01-12 02:07:00,28.0,26.5,30.36,East,87,2.0,2.0,94,0.00,,,0.00,0,Wunderground v.1.15,2013-01-12 10:07:00,
2013-01-12 02:12:00,27.9,26.4,30.36,East,87,1.0,2.0,94,0.00,,,0.00,0,Wunderground v.1.15,2013-01-12 10:12:00,
2013-01-12 02:17:00,28.0,26.5,30.36,East,87,2.0,2.0,94,0.00,,,0.00,0,Wunderground v.1.15,2013-01-12 10:17:00,
2013-01-12 02:22:00,28.0,26.5,30.37,East,87,1.0,2.0,94,0.00,,,0.00,0,Wunderground v.1.15,2013-01-12 10:22:00,
2013-01-12 02:27:00,28.0,26.5,30.36,East,87,1.0,2.0,94,0.00,,,0.00,0,Wunderground v.1.15,2013-01-12 10:27:00,
2013-01-12 02:32:00,28.0,26.5,30.36,East,87,1.0,2.0,94,0.00,,,0.00,0,Wunderground v.1.15,2013-01-12 10:32:00,
2013-01-12 02:37:00,27.9,26.4,30.36,East,87,1.0,2.0,94,0.00,,,0.00,0,Wunderground v.1.15,2013-01-12 10:37:00,
2013-01-12 02:42:00,27.9,26.4,30.36,East,87,1.0,2.0,94,0.00,,,0.00,0,Wunderground v.1.15,2013-01-12 10:42:00,
2013-01-12 02:47:00,27.8,26.3,30.36,East,87,0.0,2.0,94,0.00,,,0.00,0,Wunderground v.1.15,2013-01-12 10:47:00,
2013-01-12 02:52:00,27.9,26.4,30.37,East,87,0.0,2.0,94,0.00,,,0.00,0,Wunderground v.1.15,2013-01-12 10:52:00,
2013-01-12 02:57:00,27.9,26.4,30.37,East,86,0.0,2.0,94,0.00,,,0.00,0,Wunderground v.1.15,2013-01-12 10:57:00,
2013-01-12 03:02:00,27.8,26.3,30.36,East,87,1.0,1.0,94,0.00,,,0.00,0,Wunderground v.1.15,2013-01-12 11:02:00,
2013-01-12 03:07:00,27.8,26.3,30.36,East,87,1.0,2.0,94,0.00,,,0.00,0,Wunderground v.1.15,2013-01-12 11:07:00,
2013-01-12 03:12:00,27.8,26.3,30.36,East,87,1.0,1.0,94,0.00,,,0.00,0,Wunderground v.1.15,2013-01-12 11:12:00,
2013-01-12 03:17:00,27.7,25.9,30.36,East,87,1.0,2.0,93,0.00,,,0.00,0,Wunderground v.1.15,2013-01-12 11:17:00,
2013-01-12 03:22:00,27.7,25.9,30.36,East,87,1.0,2.0,93,0.00,,,0.00,0,Wunderground v.1.15,2013-01-12 11:22:00,
2013-01-12 03:27:00,27.6,25.8,30.36,East,87,2.0,2.0,93,0.00,,,0.00,0,Wunderground v.1.15,2013-01-12 11:27:00,
2013-01-12 03:32:00,27.6,25.8,30.37,East,87,1.0,2.0,93,0.00,,,0.00,0,Wunderground v.1.15,2013-01-12 11:32:00,
2013-01-12 03:37:00,27.5,25.7,30.36,East,86,0.0,2.0,93,0.00,,,0.00,0,Wunderground v.1.15,2013-01-12 11:37:00,
2013-01-12 03:42:00,27.4,25.6,30.37,East,87,0.0,1.0,93,0.00,,,0.00,0,Wunderground v.1.15,2013-01-12 11:42:00,
2013-01-12 03:47:00,27.4,25.6,30.36,East,87,1.0,2.0,93,0.00,,,0.00,0,Wunderground v.1.15,2013-01-12 11:47:00,
2013-01-12 03:52:00,27.2,25.4,30.36,East,87,1.0,2.0,93,0.00,,,0.00,0,Wunderground v.1.15,2013-01-12 11:52:00,
2013-01-12 03:57:00,27.2,25.4,30.37,East,86,0.0,3.0,93,0.00,,,0.00,0,Wunderground v.1.15,2013-01-12 11:57:00,
2013-01-12 04:02:00,27.2,25.4,30.37,East,86,2.0,2.0,93,0.00,,,0.00,0,Wunderground v.1.15,2013-01-12 12:02:00,
2013-01-12 04:07:00,27.2,25.4,30.37,East,86,2.0,2.0,93,0.00,,,0.00,0,Wunderground v.1.15,2013-01-12 12:07:00,
2013-01-12 04:12:00,27.1,25.3,30.37,East,85,1.0,3.0,93,0.00,,,0.00,0,Wunderground v.1.15,2013-01-12 12:12:00,
2013-01-12 04:17:00,27.1,25.3,30.37,East,84,2.0,3.0,93,0.00,,,0.00,0,Wunderground v.1.15,2013-01-12 12:17:00,
2013-01-12 04:22:00,27.0,25.2,30.37,East,84,1.0,2.0,93,0.00,,,0.00,0,Wunderground v.1.15,2013-01-12 12:22:00,
2013-01-12 04:27:00,26.9,25.1,30.37,East,84,1.0,2.0,93,0.00,,,0.00,0,Wunderground v.1.15,2013-01-12 12:27:00,
2013-01-12 04:32:00,26.9,25.1,30.37,East,84,1.0,2.0,93,0.00,,,0.00,0,Wunderground v.1.15,2013-01-12 12:32:00,
2013-01-12 04:37:00,26.9,25.1,30.37,East,84,0.0,2.0,93,0.00,,,0.00,0,Wunderground v.1.15,2013-01-12 12:37:00,
2013-01-12 04:42:00,26.8,25.0,30.37,East,84,1.0,1.0,93,0.00,,,0.00,0,Wunderground v.1.15,2013-01-12 12:42:00,
2013-01-12 04:47:00,26.8,25.0,30.37,East,84,0.0,2.0,93,0.00,,,0.00,0,Wunderground v.1.15,2013-01-12 12:47:00,
2013-01-12 04:52:00,26.8,25.0,30.37,East,84,1.0,2.0,93,0.00,,,0.00,0,Wunderground v.1.15,2013-01-12 12:52:00,
2013-01-12 04:57:00,26.8,25.0,30.38,East,84,1.0,2.0,93,0.00,,,0.00,0,Wunderground v.1.15,2013-01-12 12:57:00,
2013-01-12 05:02:00,26.9,25.1,30.38,East,84,0.0,2.0,93,0.00,,,0.00,0,Wunderground v.1.15,2013-01-12 13:02:00,
2013-01-12 05:07:00,27.0,25.2,30.37,East,84,0.0,2.0,93,0.00,,,0.00,0,Wunderground v.1.15,2013-01-12 13:07:00,
2013-01-12 05:12:00,27.0,25.2,30.37,East,84,0.0,2.0,93,0.00,,,0.00,0,Wunderground v.1.15,2013-01-12 13:12:00,
2013-01-12 05:17:00,27.1,25.3,30.37,East,84,1.0,2.0,93,0.00,,,0.00,0,Wunderground v.1.15,2013-01-12 13:17:00,
2013-01-12 05:22:00,27.1,25.3,30.37,East,84,0.0,2.0,93,0.00,,,0.00,0,Wunderground v.1.15,2013-01-12 13:22:00,
2013-01-12 05:27:00,27.2,25.4,30.37,East,84,1.0,2.0,93,0.00,,,0.00,0,Wunderground v.1.15,2013-01-12 13:27:00,
2013-01-12 05:32:00,27.2,25.4,30.37,East,84,1.0,2.0,93,0.00,,,0.00,0,Wunderground v.1.15,2013-01-12 13:32:00,
2013-01-12 05:37:00,27.3,25.5,30.37,East,84,1.0,2.0,93,0.00,,,0.00,0,Wunderground v.1.15,2013-01-12 13:37:00,
2013-01-12 05:42:00,27.4,25.6,30.37,East,84,1.0,2.0,93,0.00,,,0.00,0,Wunderground v.1.15,2013-01-12 13:42:00,
2013-01-12 05:47:00,27.4,25.6,30.37,East,84,0.0,2.0,93,0.00,,,0.00,0,Wunderground v.1.15,2013-01-12 13:47:00,
2013-01-12 05:52:00,27.4,25.6,30.37,East,84,1.0,2.0,93,0.00,,,0.00,0,Wunderground v.1.15,2013-01-12 13:52:00,
2013-01-12 05:57:00,27.4,25.6,30.37,East,84,0.0,2.0,93,0.00,,,0.00,0,Wunderground v.1.15,2013-01-12 13:57:00,
2013-01-12 06:02:00,27.4,25.6,30.37,East,84,0.0,1.0,93,0.00,,,0.00,0,Wunderground v.1.15,2013-01-12 14:02:00,
2013-01-12 06:07:00,27.4,25.6,30.37,East,84,1.0,2.0,93,0.00,,,0.00,0,Wunderground v.1.15,2013-01-12 14:07:00,
2013-01-12 06:12:00,27.4,25.6,30.37,East,84,1.0,2.0,93,0.00,,,0.00,0,Wunderground v.1.15,2013-01-12 14:12:00,
2013-01-12 06:17:00,27.4,25.6,30.37,East,84,2.0,2.0,93,0.00,,,0.00,0,Wunderground v.1.15,2013-01-12 14:17:00,
2013-01-12 06:22:00,27.4,25.6,30.37,East,84,3.0,3.0,93,0.00,,,0.00,0,Wunderground v.1.15,2013-01-12 14:22:00,
2013-01-12 06:27:00,27.5,25.7,30.37,East,84,1.0,3.0,93,0.00,,,0.00,0,Wunderground v.1.15,2013-01-12 14:27:00,
2013-01-12 06:32:00,27.6,25.8,30.37,East,84,1.0,1.0,93,0.00,,,0.00,0,Wunderground v.1.15,2013-01-12 14:32:00,
2013-01-12 06:36:00,27.7,25.9,30.37,East,84,0.0,2.0,93,0.00,,,0.00,0,Wunderground v.1.15,2013-01-12 14:36:00,
2013-01-12 06:42:00,27.7,25.9,30.37,East,84,1.0,2.0,93,0.00,,,0.00,0,Wunderground v.1.15,2013-01-12 14:42:00,
2013-01-12 06:46:00,27.7,25.9,30.37,East,84,1.0,2.0,93,0.00,,,0.00,0,Wunderground v.1.15,2013-01-12 14:46:00,
2013-01-12 06:51:00,27.7,25.9,30.37,East,84,1.0,2.0,93,0.00,,,0.00,0,Wunderground v.1.15,2013-01-12 14:51:00,
2013-01-12 06:56:00,27.8,26.0,30.37,East,84,0.0,2.0,93,0.00,,,0.00,0,Wunderground v.1.15,2013-01-12 14:56:00,
2013-01-12 07:01:00,27.8,26.0,30.37,East,84,0.0,1.0,93,0.00,,,0.00,0,Wunderground v.1.15,2013-01-12 15:01:00,
2013-01-12 07:06:00,27.8,26.0,30.38,East,84,1.0,3.0,93,0.00,,,0.00,0,Wunderground v.1.15,2013-01-12 15:06:00,
2013-01-12 07:11:00,27.9,26.1,30.38,East,84,0.0,2.0,93,0.00,,,0.00,0,Wunderground v.1.15,2013-01-12 15:11:00,
2013-01-12 07:16:00,28.0,26.2,30.38,East,84,0.0,2.0,93,0.00,,,0.00,0,Wunderground v.1.15,2013-01-12 15:16:00,
2013-01-12 07:21:00,27.9,26.1,30.38,East,84,2.0,2.0,93,0.00,,,0.00,0,Wunderground v.1.15,2013-01-12 15:21:00,
2013-01-12 07:26:00,28.0,26.2,30.38,East,84,1.0,3.0,93,0.00,,,0.00,0,Wunderground v.1.15,2013-01-12 15:26:00,
2013-01-12 07:31:00,28.1,26.3,30.39,East,84,2.0,2.0,93,0.00,,,0.00,0,Wunderground v.1.15,2013-01-12 15:31:00,
2013-01-12 07:36:00,28.1,26.1,30.39,East,84,1.0,3.0,92,0.00,,,0.00,0,Wunderground v.1.15,2013-01-12 15:36:00,
2013-01-12 07:41:00,28.1,26.1,30.39,East,84,1.0,2.0,92,0.00,,,0.00,0,Wunderground v.1.15,2013-01-12 15:41:00,
2013-01-12 07:46:00,28.0,26.0,30.39,East,84,0.0,3.0,92,0.00,,,0.00,0,Wunderground v.1.15,2013-01-12 15:46:00,
2013-01-12 07:51:00,28.0,26.0,30.39,East,84,0.0,2.0,92,0.00,,,0.00,0,Wunderground v.1.15,2013-01-12 15:51:00,
2013-01-12 07:56:00,28.0,26.0,30.39,East,84,0.0,2.0,92,0.00,,,0.00,0,Wunderground v.1.15,2013-01-12 15:56:00,
2013-01-12 08:01:00,28.0,26.0,30.40,East,84,1.0,2.0,92,0.00,,,0.00,0,Wunderground v.1.15,2013-01-12 16:01:00,
2013-01-12 08:06:00,28.0,26.0,30.40,East,84,1.0,2.0,92,0.00,,,0.00,5,Wunderground v.1.15,2013-01-12 16:06:00,
2013-01-12 08:11:00,28.0,26.0,30.40,East,84,0.0,2.0,92,0.00,,,0.00,7,Wunderground v.1.15,2013-01-12 16:11:00,
2013-01-12 08:16:00,28.0,26.0,30.40,East,84,0.0,2.0,92,0.00,,,0.00,12,Wunderground v.1.15,2013-01-12 16:16:00,
2013-01-12 08:21:00,28.0,26.0,30.40,East,84,1.0,2.0,92,0.00,,,0.00,18,Wunderground v.1.15,2013-01-12 16:21:00,
2013-01-12 08:26:00,28.1,26.1,30.40,East,84,1.0,2.0,92,0.00,,,0.00,21,Wunderground v.1.15,2013-01-12 16:26:00,
2013-01-12 08:31:00,28.1,26.1,30.40,East,84,0.0,2.0,92,0.00,,,0.00,25,Wunderground v.1.15,2013-01-12 16:31:00,
2013-01-12 08:36:00,28.2,26.2,30.41,East,84,0.0,2.0,92,0.00,,,0.00,32,Wunderground v.1.15,2013-01-12 16:36:00,
2013-01-12 08:41:00,28.3,26.3,30.41,East,84,2.0,2.0,92,0.00,,,0.00,37,Wunderground v.1.15,2013-01-12 16:41:00,
2013-01-12 08:46:00,28.3,26.3,30.41,East,84,2.0,3.0,92,0.00,,,0.00,42,Wunderground v.1.15,2013-01-12 16:46:00,
2013-01-12 08:51:00,28.4,26.4,30.41,East,84,1.0,2.0,92,0.00,,,0.00,42,Wunderground v.1.15,2013-01-12 16:51:00,
2013-01-12 08:56:00,28.6,26.3,30.40,East,84,2.0,2.0,91,0.00,,,0.00,49,Wunderground v.1.15,2013-01-12 16:56:00,
2013-01-12 09:01:00,28.9,26.6,30.41,East,84,0.0,2.0,91,0.00,,,0.00,51,Wunderground v.1.15,2013-01-12 17:01:00,
2013-01-12 09:06:00,29.0,26.4,30.41,East,84,1.0,2.0,90,0.00,,,0.00,56,Wunderground v.1.15,2013-01-12 17:06:00,
2013-01-12 09:11:00,29.1,26.5,30.41,East,84,1.0,2.0,90,0.00,,,0.00,58,Wunderground v.1.15,2013-01-12 17:11:00,
2013-01-12 09:16:00,29.2,26.6,30.41,East,84,1.0,2.0,90,0.00,,,0.00,54,Wunderground v.1.15,2013-01-12 17:16:00,
2013-01-12 09:21:00,29.3,26.7,30.41,East,84,1.0,2.0,90,0.00,,,0.00,81,Wunderground v.1.15,2013-01-12 17:21:00,
2013-01-12 09:26:00,29.4,26.8,30.41,East,84,1.0,2.0,90,0.00,,,0.00,90,Wunderground v.1.15,2013-01-12 17:26:00,
2013-01-12 09:31:00,29.4,26.8,30.41,East,84,2.0,2.0,90,0.00,,,0.00,90,Wunderground v.1.15,2013-01-12 17:31:00,
2013-01-12 09:36:00,29.7,27.1,30.41,East,84,0.0,3.0,90,0.00,,,0.00,107,Wunderground v.1.15,2013-01-12 17:36:00,
2013-01-12 09:41:00,29.9,27.3,30.41,East,84,0.0,1.0,90,0.00,,,0.00,141,Wunderground v.1.15,2013-01-12 17:41:00,
2013-01-12 09:46:00,30.5,27.6,30.41,East,84,1.0,3.0,89,0.00,,,0.00,155,Wunderground v.1.15,2013-01-12 17:46:00,
2013-01-12 09:51:00,30.7,27.8,30.41,East,84,0.0,2.0,89,0.00,,,0.00,172,Wunderground v.1.15,2013-01-12 17:51:00,
2013-01-12 09:56:00,31.2,27.8,30.41,East,84,0.0,3.0,87,0.00,,,0.00,160,Wunderground v.1.15,2013-01-12 17:56:00,
2013-01-12 10:01:00,31.4,28.3,30.41,East,94,0.0,1.0,88,0.00,,,0.01,171,Wunderground v.1.15,2013-01-12 18:01:00,
2013-01-12 10:06:00,31.4,28.0,30.41,East,94,0.0,2.0,87,0.00,,,0.01,174,Wunderground v.1.15,2013-01-12 18:06:00,
2013-01-12 10:11:00,33.2,29.2,30.41,East,95,1.0,1.0,85,0.00,,,0.01,183,Wunderground v.1.15,2013-01-12 18:11:00,
2013-01-12 10:16:00,32.8,28.5,30.41,East,95,0.0,3.0,84,0.00,,,0.01,188,Wunderground v.1.15,2013-01-12 18:16:00,
2013-01-12 10:21:00,32.8,28.8,30.41,East,95,0.0,2.0,85,0.00,,,0.01,197,Wunderground v.1.15,2013-01-12 18:21:00,
2013-01-12 10:26:00,33.6,29.3,30.40,East,101,1.0,3.0,84,0.00,,,0.01,202,Wunderground v.1.15,2013-01-12 18:26:00,
2013-01-12 10:31:00,34.7,29.8,30.40,SSW,196,2.0,3.0,82,0.00,,,0.01,209,Wunderground v.1.15,2013-01-12 18:31:00,
2013-01-12 10:36:00,35.1,30.2,30.41,SSW,196,1.0,3.0,82,0.00,,,0.01,214,Wunderground v.1.15,2013-01-12 18:36:00,
2013-01-12 10:41:00,35.3,29.7,30.41,SSW,196,2.0,3.0,80,0.00,,,0.01,221,Wunderground v.1.15,2013-01-12 18:41:00,
2013-01-12 10:46:00,35.2,29.6,30.40,WSW,245,2.0,3.0,80,0.00,,,0.01,225,Wunderground v.1.15,2013-01-12 18:46:00,
2013-01-12 10:51:00,35.6,30.0,30.40,SW,230,1.0,2.0,80,0.00,,,0.01,232,Wunderground v.1.15,2013-01-12 18:51:00,
2013-01-12 10:56:00,36.0,30.1,30.40,SW,235,2.0,3.0,79,0.00,,,0.01,237,Wunderground v.1.15,2013-01-12 18:56:00,
2013-01-12 11:01:00,35.8,29.9,30.40,SW,230,2.0,3.0,79,0.00,,,0.01,243,Wunderground v.1.15,2013-01-12 19:01:00,
2013-01-12 11:06:00,36.6,30.4,30.40,SW,234,1.0,3.0,78,0.00,,,0.01,246,Wunderground v.1.15,2013-01-12 19:06:00,
2013-01-12 11:11:00,37.1,30.6,30.40,SW,227,0.0,2.0,77,0.00,,,0.01,253,Wunderground v.1.15,2013-01-12 19:11:00,
2013-01-12 11:16:00,36.7,30.8,30.40,SW,229,0.0,3.0,79,0.00,,,0.01,258,Wunderground v.1.15,2013-01-12 19:16:00,
2013-01-12 11:21:00,38.0,31.4,30.40,SW,232,1.0,3.0,77,0.00,,,0.01,264,Wunderground v.1.15,2013-01-12 19:21:00,
2013-01-12 11:26:00,37.4,30.2,30.40,WSW,242,3.0,3.0,75,0.00,,,0.01,267,Wunderground v.1.15,2013-01-12 19:26:00,
2013-01-12 11:31:00,36.7,28.5,30.40,WSW,244,4.0,4.0,72,0.00,,,0.01,272,Wunderground v.1.15,2013-01-12 19:31:00,
2013-01-12 11:36:00,37.2,30.0,30.40,WSW,251,2.0,4.0,75,0.00,,,0.01,278,Wunderground v.1.15,2013-01-12 19:36:00,
2013-01-12 11:41:00,38.3,30.4,30.40,SW,227,1.0,3.0,73,0.00,,,0.01,292,Wunderground v.1.15,2013-01-12 19:41:00,
2013-01-12 11:46:00,38.3,30.4,30.40,WSW,241,2.0,4.0,73,0.00,,,0.01,302,Wunderground v.1.15,2013-01-12 19:46:00,
2013-01-12 11:51:00,38.3,30.7,30.40,ESE,118,0.0,4.0,74,0.00,,,0.01,329,Wunderground v.1.15,2013-01-12 19:51:00,
2013-01-12 11:56:00,37.7,28.8,30.40,ESE,123,1.0,4.0,70,0.00,,,0.01,258,Wunderground v.1.15,2013-01-12 19:56:00,
2013-01-12 12:01:00,37.9,28.6,30.40,ESE,105,1.0,2.0,69,0.00,,,0.01,343,Wunderground v.1.15,2013-01-12 20:01:00,
2013-01-12 12:06:00,37.6,27.6,30.40,ESE,103,4.0,7.0,67,0.00,,,0.01,302,Wunderground v.1.15,2013-01-12 20:06:00,
2013-01-12 12:11:00,37.7,28.4,30.40,East,86,2.0,3.0,69,0.00,,,0.01,209,Wunderground v.1.15,2013-01-12 20:11:00,
2013-01-12 12:16:00,38.4,28.0,30.40,SSE,159,2.0,3.0,66,0.00,,,0.01,292,Wunderground v.1.15,2013-01-12 20:16:00,
2013-01-12 12:21:00,37.7,27.0,30.39,ESE,112,3.0,4.0,65,0.00,,,0.01,269,Wunderground v.1.15,2013-01-12 20:21:00,
2013-01-12 12:26:00,37.7,27.0,30.39,East,95,1.0,5.0,65,0.00,,,0.01,288,Wunderground v.1.15,2013-01-12 20:26:00,
2013-01-12 12:31:00,37.4,27.1,30.39,SE,134,2.0,3.0,66,0.00,,,0.01,285,Wunderground v.1.15,2013-01-12 20:31:00,
2013-01-12 12:36:00,38.6,28.2,30.39,SE,135,0.0,3.0,66,0.00,,,0.01,288,Wunderground v.1.15,2013-01-12 20:36:00,
2013-01-12 12:41:00,37.9,27.5,30.39,SE,145,1.0,3.0,66,0.00,,,0.01,283,Wunderground v.1.15,2013-01-12 20:41:00,
2013-01-12 12:46:00,37.9,27.5,30.39,East,87,1.0,5.0,66,0.00,,,0.01,283,Wunderground v.1.15,2013-01-12 20:46:00,
2013-01-12 12:51:00,38.6,28.6,30.39,SSW,209,5.0,5.0,67,0.00,,,0.01,288,Wunderground v.1.15,2013-01-12 20:51:00,
2013-01-12 12:56:00,39.1,27.6,30.39,East,85,1.0,5.0,63,0.00,,,0.01,272,Wunderground v.1.15,2013-01-12 20:56:00,
2013-01-12 13:01:00,38.0,26.5,30.39,NNE,29,3.0,4.0,63,0.00,,,0.01,278,Wunderground v.1.15,2013-01-12 21:01:00,
2013-01-12 13:06:00,38.0,26.9,30.39,East,91,3.0,6.0,64,0.00,,,0.01,276,Wunderground v.1.15,2013-01-12 21:06:00,
2013-01-12 13:11:00,38.4,27.3,30.39,NNE,24,0.0,2.0,64,0.00,,,0.01,272,Wunderground v.1.15,2013-01-12 21:11:00,
2013-01-12 13:16:00,38.9,27.8,30.39,NE,55,1.0,5.0,64,0.00,,,0.01,227,Wunderground v.1.15,2013-01-12 21:16:00,
2013-01-12 13:21:00,38.9,27.4,30.39,NNE,33,2.0,4.0,63,0.00,,,0.01,264,Wunderground v.1.15,2013-01-12 21:21:00,
2013-01-12 13:26:00,39.2,27.3,30.40,NNE,32,2.0,5.0,62,0.00,,,0.01,267,Wunderground v.1.15,2013-01-12 21:26:00,
2013-01-12 13:31:00,38.9,27.8,30.40,NE,47,2.0,6.0,64,0.00,,,0.01,258,Wunderground v.1.15,2013-01-12 21:31:00,
2013-01-12 13:36:00,38.4,26.9,30.40,ENE,58,1.0,6.0,63,0.00,,,0.01,248,Wunderground v.1.15,2013-01-12 21:36:00,
2013-01-12 13:41:00,38.6,27.1,30.40,NNE,32,5.0,6.0,63,0.00,,,0.01,239,Wunderground v.1.15,2013-01-12 21:41:00,
2013-01-12 13:46:00,38.4,26.5,30.40,NE,41,3.0,6.0,62,0.00,,,0.01,234,Wunderground v.1.15,2013-01-12 21:46:00,
2013-01-12 13:51:00,38.7,26.4,30.40,ENE,71,2.0,7.0,61,0.00,,,0.01,218,Wunderground v.1.15,2013-01-12 21:51:00,
2013-01-12 13:56:00,38.4,25.7,30.40,ESE,105,3.0,7.0,60,0.00,,,0.01,218,Wunderground v.1.15,2013-01-12 21:56:00,
2013-01-12 14:01:00,38.1,25.4,30.40,ENE,75,1.0,5.0,60,0.00,,,0.01,207,Wunderground v.1.15,2013-01-12 22:01:00,
2013-01-12 14:06:00,38.2,24.7,30.40,East,81,5.0,10.0,58,0.00,,,0.01,200,Wunderground v.1.15,2013-01-12 22:06:00,
2013-01-12 14:11:00,37.6,24.6,30.40,ESE,103,4.0,5.0,59,0.00,,,0.01,192,Wunderground v.1.15,2013-01-12 22:11:00,
2013-01-12 14:16:00,37.7,25.1,30.40,ENE,75,1.0,7.0,60,0.00,,,0.01,186,Wunderground v.1.15,2013-01-12 22:16:00,
2013-01-12 14:21:00,37.7,25.1,30.40,ESE,117,8.0,10.0,60,0.00,,,0.01,178,Wunderground v.1.15,2013-01-12 22:21:00,
2013-01-12 14:26:00,37.4,25.2,30.40,ESE,109,5.0,11.0,61,0.00,,,0.01,169,Wunderground v.1.15,2013-01-12 22:26:00,
2013-01-12 14:31:00,37.4,25.6,30.40,ESE,107,0.0,5.0,62,0.00,,,0.01,158,Wunderground v.1.15,2013-01-12 22:31:00,
2013-01-12 14:36:00,37.9,26.0,30.40,ESE,117,5.0,7.0,62,0.00,,,0.01,151,Wunderground v.1.15,2013-01-12 22:36:00,
2013-01-12 14:41:00,37.4,25.2,30.41,ESE,106,7.0,9.0,61,0.00,,,0.01,142,Wunderground v.1.15,2013-01-12 22:41:00,
2013-01-12 14:46:00,37.1,25.3,30.41,ESE,105,2.0,9.0,62,0.00,,,0.01,132,Wunderground v.1.15,2013-01-12 22:46:00,
2013-01-12 14:51:00,37.3,25.1,30.41,ESE,108,1.0,5.0,61,0.00,,,0.01,127,Wunderground v.1.15,2013-01-12 22:51:00,
2013-01-12 14:56:00,37.8,25.9,30.41,NNE,30,2.0,6.0,62,0.00,,,0.01,114,Wunderground v.1.15,2013-01-12 22:56:00,
2013-01-12 15:01:00,37.8,25.5,30.41,ESE,114,3.0,7.0,61,0.00,,,0.01,105,Wunderground v.1.15,2013-01-12 23:01:00,
2013-01-12 15:06:00,37.2,25.0,30.41,ESE,113,3.0,7.0,61,0.00,,,0.01,97,Wunderground v.1.15,2013-01-12 23:06:00,
2013-01-12 15:11:00,36.8,25.0,30.41,ENE,59,4.0,5.0,62,0.00,,,0.01,88,Wunderground v.1.15,2013-01-12 23:11:00,
2013-01-12 15:16:00,36.9,25.1,30.41,East,88,3.0,7.0,62,0.00,,,0.01,81,Wunderground v.1.15,2013-01-12 23:16:00,
2013-01-12 15:21:00,36.6,24.4,30.41,East,95,2.0,4.0,61,0.00,,,0.01,76,Wunderground v.1.15,2013-01-12 23:21:00,
2013-01-12 15:26:00,36.7,24.5,30.41,ESE,102,8.0,12.0,61,0.00,,,0.01,70,Wunderground v.1.15,2013-01-12 23:26:00,
2013-01-12 15:31:00,36.5,24.3,30.41,East,96,3.0,5.0,61,0.00,,,0.01,58,Wunderground v.1.15,2013-01-12 23:31:00,
2013-01-12 15:36:00,36.5,24.3,30.41,East,92,5.0,10.0,61,0.00,,,0.01,37,Wunderground v.1.15,2013-01-12 23:36:00,
2013-01-12 15:41:00,36.4,24.6,30.41,East,96,5.0,5.0,62,0.00,,,0.01,32,Wunderground v.1.15,2013-01-12 23:41:00,
2013-01-12 15:46:00,36.2,24.0,30.41,ESE,117,4.0,8.0,61,0.00,,,0.01,25,Wunderground v.1.15,2013-01-12 23:46:00,
2013-01-12 15:51:00,36.0,24.2,30.41,ESE,117,1.0,3.0,62,0.00,,,0.01,23,Wunderground v.1.15,2013-01-12 23:51:00,
2013-01-12 15:56:00,35.8,24.4,30.41,East,101,3.0,5.0,63,0.00,,,0.01,21,Wunderground v.1.15,2013-01-12 23:56:00,
2013-01-12 16:00:00,35.5,23.8,30.41,ESE,112,3.0,4.0,62,0.00,,,0.01,18,Wunderground v.1.15,2013-01-13 00:00:00,
2013-01-12 16:05:00,35.4,24.0,30.41,ESE,106,1.0,5.0,63,0.00,,,0.01,18,Wunderground v.1.15,2013-01-13 00:05:00,
2013-01-12 16:10:00,35.3,24.3,30.41,ESE,104,4.0,4.0,64,0.00,,,0.01,14,Wunderground v.1.15,2013-01-13 00:10:00,
2013-01-12 16:15:00,35.1,24.5,30.41,East,85,3.0,5.0,65,0.00,,,0.01,12,Wunderground v.1.15,2013-01-13 00:15:00,
2013-01-12 16:20:00,35.0,24.8,30.41,East,101,5.0,5.0,66,0.00,,,0.01,11,Wunderground v.1.15,2013-01-13 00:20:00,
2013-01-12 16:25:00,34.9,24.7,30.41,ENE,78,1.0,5.0,66,0.00,,,0.01,9,Wunderground v.1.15,2013-01-13 00:25:00,
2013-01-12 16:30:00,34.8,24.6,30.41,East,95,3.0,3.0,66,0.00,,,0.01,5,Wunderground v.1.15,2013-01-13 00:30:00,
2013-01-12 16:35:00,34.6,24.8,30.41,ESE,105,1.0,5.0,67,0.00,,,0.01,0,Wunderground v.1.15,2013-01-13 00:35:00,
2013-01-12 16:40:00,34.5,24.7,30.41,East,96,2.0,3.0,67,0.00,,,0.01,0,Wunderground v.1.15,2013-01-13 00:40:00,
2013-01-12 16:45:00,34.4,24.6,30.41,East,97,2.0,3.0,67,0.00,,,0.01,0,Wunderground v.1.15,2013-01-13 00:45:00,
2013-01-12 16:50:00,34.3,24.5,30.41,East,97,2.0,2.0,67,0.00,,,0.01,0,Wunderground v.1.15,2013-01-13 00:50:00,
2013-01-12 16:55:00,34.2,24.7,30.42,East,97,1.0,3.0,68,0.00,,,0.01,0,Wunderground v.1.15,2013-01-13 00:55:00,
2013-01-12 17:00:00,34.1,24.6,30.42,East,96,0.0,1.0,68,0.00,,,0.01,0,Wunderground v.1.15,2013-01-13 01:00:00,
2013-01-12 17:05:00,34.0,24.9,30.42,East,96,1.0,3.0,69,0.00,,,0.01,0,Wunderground v.1.15,2013-01-13 01:05:00,
2013-01-12 17:10:00,33.9,24.8,30.42,East,96,0.0,1.0,69,0.00,,,0.01,0,Wunderground v.1.15,2013-01-13 01:10:00,
2013-01-12 17:15:00,33.9,24.8,30.42,East,96,3.0,3.0,69,0.00,,,0.01,0,Wunderground v.1.15,2013-01-13 01:15:00,
2013-01-12 17:20:00,33.9,24.8,30.42,East,91,1.0,1.0,69,0.00,,,0.01,0,Wunderground v.1.15,2013-01-13 01:20:00,
2013-01-12 17:25:00,33.8,25.0,30.42,East,91,1.0,3.0,70,0.00,,,0.01,0,Wunderground v.1.15,2013-01-13 01:25:00,
2013-01-12 17:30:00,33.9,24.8,30.41,East,91,0.0,2.0,69,0.00,,,0.01,0,Wunderground v.1.15,2013-01-13 01:30:00,
2013-01-12 17:35:00,33.9,24.8,30.42,East,91,0.0,2.0,69,0.00,,,0.01,0,Wunderground v.1.15,2013-01-13 01:35:00,
2013-01-12 17:40:00,33.8,25.0,30.42,East,91,0.0,1.0,70,0.00,,,0.01,0,Wunderground v.1.15,2013-01-13 01:40:00,
2013-01-12 17:45:00,33.8,25.0,30.41,East,91,0.0,2.0,70,0.00,,,0.01,0,Wunderground v.1.15,2013-01-13 01:45:00,
2013-01-12 17:50:00,33.6,24.9,30.42,East,91,1.0,1.0,70,0.00,,,0.01,0,Wunderground v.1.15,2013-01-13 01:50:00,
2013-01-12 17:55:00,33.5,24.8,30.42,East,92,1.0,3.0,70,0.00,,,0.01,0,Wunderground v.1.15,2013-01-13 01:55:00,
2013-01-12 18:00:00,33.5,25.1,30.42,East,90,0.0,1.0,71,0.00,,,0.01,0,Wunderground v.1.15,2013-01-13 02:00:00,
2013-01-12 18:05:00,33.3,25.2,30.42,East,90,2.0,2.0,72,0.00,,,0.01,0,Wunderground v.1.15,2013-01-13 02:05:00,
2013-01-12 18:10:00,33.2,25.1,30.42,East,90,1.0,1.0,72,0.00,,,0.01,0,Wunderground v.1.15,2013-01-13 02:10:00,
2013-01-12 18:15:00,33.1,25.4,30.42,East,93,0.0,3.0,73,0.00,,,0.01,0,Wunderground v.1.15,2013-01-13 02:15:00,
2013-01-12 18:20:00,33.0,25.6,30.42,East,93,2.0,2.0,74,0.00,,,0.01,0,Wunderground v.1.15,2013-01-13 02:20:00,
2013-01-12 18:25:00,32.9,25.5,30.43,East,93,1.0,3.0,74,0.00,,,0.01,0,Wunderground v.1.15,2013-01-13 02:25:00,
2013-01-12 18:30:00,32.9,25.8,30.43,East,93,1.0,1.0,75,0.00,,,0.01,0,Wunderground v.1.15,2013-01-13 02:30:00,
2013-01-12 18:35:00,32.6,25.9,30.43,East,93,0.0,2.0,76,0.00,,,0.01,0,Wunderground v.1.15,2013-01-13 02:35:00,
2013-01-12 18:40:00,32.4,26.0,30.43,East,93,1.0,1.0,77,0.00,,,0.01,0,Wunderground v.1.15,2013-01-13 02:40:00,
2013-01-12 18:45:00,32.2,25.8,30.43,East,93,0.0,1.0,77,0.00,,,0.01,0,Wunderground v.1.15,2013-01-13 02:45:00,
2013-01-12 18:50:00,31.9,25.8,30.43,East,93,0.0,0.0,78,0.00,,,0.01,0,Wunderground v.1.15,2013-01-13 02:50:00,
2013-01-12 18:55:00,31.6,25.5,30.43,East,93,0.0,1.0,78,0.00,,,0.01,0,Wunderground v.1.15,2013-01-13 02:55:00,
2013-01-12 19:00:00,31.5,25.7,30.43,East,93,1.0,2.0,79,0.00,,,0.01,0,Wunderground v.1.15,2013-01-13 03:00:00,
2013-01-12 19:05:00,31.4,25.6,30.43,East,93,1.0,2.0,79,0.00,,,0.01,0,Wunderground v.1.15,2013-01-13 03:05:00,
2013-01-12 19:10:00,31.3,25.8,30.43,East,93,1.0,1.0,80,0.00,,,0.01,0,Wunderground v.1.15,2013-01-13 03:10:00,
2013-01-12 19:15:00,31.4,25.9,30.43,East,93,1.0,2.0,80,0.00,,,0.01,0,Wunderground v.1.15,2013-01-13 03:15:00,
2013-01-12 19:20:00,31.3,25.8,30.43,East,93,1.0,1.0,80,0.00,,,0.01,0,Wunderground v.1.15,2013-01-13 03:20:00,
2013-01-12 19:25:00,31.3,25.8,30.43,East,93,0.0,2.0,80,0.00,,,0.01,0,Wunderground v.1.15,2013-01-13 03:25:00,
2013-01-12 19:30:00,31.3,25.8,30.43,East,93,1.0,1.0,80,0.00,,,0.01,0,Wunderground v.1.15,2013-01-13 03:30:00,
2013-01-12 19:35:00,31.3,25.8,30.43,East,93,1.0,2.0,80,0.00,,,0.01,0,Wunderground v.1.15,2013-01-13 03:35:00,
2013-01-12 19:40:00,31.3,25.8,30.43,East,93,1.0,1.0,80,0.00,,,0.01,0,Wunderground v.1.15,2013-01-13 03:40:00,
2013-01-12 19:45:00,31.2,25.7,30.44,East,93,1.0,2.0,80,0.00,,,0.01,0,Wunderground v.1.15,2013-01-13 03:45:00,
2013-01-12 19:50:00,31.2,25.7,30.44,East,93,0.0,1.0,80,0.00,,,0.01,0,Wunderground v.1.15,2013-01-13 03:50:00,
2013-01-12 19:55:00,31.2,25.7,30.43,East,93,0.0,1.0,80,0.00,,,0.01,0,Wunderground v.1.15,2013-01-13 03:55:00,
2013-01-12 20:00:00,31.2,25.7,30.44,East,93,0.0,0.0,80,0.00,,,0.01,0,Wunderground v.1.15,2013-01-13 04:00:00,
2013-01-12 20:05:00,31.1,25.7,30.44,East,93,0.0,1.0,80,0.00,,,0.01,0,Wunderground v.1.15,2013-01-13 04:05:00,
2013-01-12 20:10:00,31.1,26.0,30.43,East,93,0.0,0.0,81,0.00,,,0.01,0,Wunderground v.1.15,2013-01-13 04:10:00,
2013-01-12 20:15:00,31.1,26.0,30.43,East,93,1.0,1.0,81,0.00,,,0.01,0,Wunderground v.1.15,2013-01-13 04:15:00,
2013-01-12 20:20:00,31.1,26.2,30.43,East,93,0.0,0.0,82,0.00,,,0.01,0,Wunderground v.1.15,2013-01-13 04:20:00,
2013-01-12 20:25:00,31.1,26.2,30.44,East,93,1.0,1.0,82,0.00,,,0.01,0,Wunderground v.1.15,2013-01-13 04:25:00,
2013-01-12 20:30:00,31.1,26.5,30.44,East,93,0.0,0.0,83,0.00,,,0.01,0,Wunderground v.1.15,2013-01-13 04:30:00,
2013-01-12 20:35:00,31.0,26.4,30.44,East,93,0.0,1.0,83,0.00,,,0.01,0,Wunderground v.1.15,2013-01-13 04:35:00,
2013-01-12 20:40:00,30.9,26.3,30.44,East,93,0.0,0.0,83,0.00,,,0.01,0,Wunderground v.1.15,2013-01-13 04:40:00,
2013-01-12 20:45:00,30.8,26.2,30.44,East,93,0.0,0.0,83,0.00,,,0.01,0,Wunderground v.1.15,2013-01-13 04:45:00,
2013-01-12 20:50:00,30.7,26.1,30.44,East,93,1.0,2.0,83,0.00,,,0.01,0,Wunderground v.1.15,2013-01-13 04:50:00,
2013-01-12 20:55:00,30.6,26.3,30.44,East,93,1.0,2.0,84,0.00,,,0.01,0,Wunderground v.1.15,2013-01-13 04:55:00,
2013-01-12 21:00:00,30.6,26.3,30.43,East,93,0.0,0.0,84,0.00,,,0.01,0,Wunderground v.1.15,2013-01-13 05:00:00,
2013-01-12 21:01:00,30.5,26.2,30.43,East,93,0.0,0.0,84,0.00,,,0.01,0,Wunderground v.1.15,2013-01-13 05:01:00,
2013-01-12 21:02:00,30.5,26.2,30.43,East,93,0.0,0.0,84,0.00,,,0.01,0,Wunderground v.1.15,2013-01-13 05:02:00,
2013-01-12 21:03:00,30.5,26.2,30.43,East,93,0.0,0.0,84,0.00,,,0.01,0,Wunderground v.1.15,2013-01-13 05:03:00,
2013-01-12 21:08:00,30.4,26.1,30.43,East,93,0.0,0.0,84,0.00,,,0.01,0,Wunderground v.1.15,2013-01-13 05:08:00,
2013-01-12 21:13:00,30.3,26.0,30.43,East,93,0.0,0.0,84,0.00,,,0.01,0,Wunderground v.1.15,2013-01-13 05:13:00,
2013-01-12 21:18:00,30.1,25.8,30.44,East,93,0.0,1.0,84,0.00,,,0.01,0,Wunderground v.1.15,2013-01-13 05:18:00,
2013-01-12 21:23:00,30.1,26.1,30.44,East,93,1.0,1.0,85,0.00,,,0.01,0,Wunderground v.1.15,2013-01-13 05:23:00,
2013-01-12 21:28:00,30.0,26.0,30.44,East,93,0.0,1.0,85,0.00,,,0.01,0,Wunderground v.1.15,2013-01-13 05:28:00,
2013-01-12 21:33:00,29.8,25.8,30.44,East,93,0.0,0.0,85,0.00,,,0.01,0,Wunderground v.1.15,2013-01-13 05:33:00,
2013-01-12 21:38:00,29.7,25.7,30.44,East,93,0.0,1.0,85,0.00,,,0.01,0,Wunderground v.1.15,2013-01-13 05:38:00,
2013-01-12 21:43:00,29.6,25.6,30.44,East,93,0.0,1.0,85,0.00,,,0.01,0,Wunderground v.1.15,2013-01-13 05:43:00,
2013-01-12 21:48:00,29.6,25.9,30.44,East,93,0.0,2.0,86,0.00,,,0.01,0,Wunderground v.1.15,2013-01-13 05:48:00,
2013-01-12 21:53:00,29.5,25.8,30.44,East,93,1.0,2.0,86,0.00,,,0.01,0,Wunderground v.1.15,2013-01-13 05:53:00,
2013-01-12 21:58:00,29.5,25.8,30.45,East,93,0.0,2.0,86,0.00,,,0.01,0,Wunderground v.1.15,2013-01-13 05:58:00,
2013-01-12 22:03:00,29.6,26.2,30.45,East,93,0.0,2.0,87,0.00,,,0.01,0,Wunderground v.1.15,2013-01-13 06:03:00,
2013-01-12 22:08:00,29.6,26.2,30.45,East,93,1.0,2.0,87,0.00,,,0.01,0,Wunderground v.1.15,2013-01-13 06:08:00,
2013-01-12 22:13:00,29.8,26.4,30.46,East,93,0.0,1.0,87,0.00,,,0.01,0,Wunderground v.1.15,2013-01-13 06:13:00,
2013-01-12 22:18:00,29.7,26.3,30.46,East,93,0.0,1.0,87,0.00,,,0.01,0,Wunderground v.1.15,2013-01-13 06:18:00,
2013-01-12 22:23:00,29.6,26.2,30.45,East,93,0.0,1.0,87,0.00,,,0.01,0,Wunderground v.1.15,2013-01-13 06:23:00,
2013-01-12 22:28:00,29.4,26.0,30.46,East,93,0.0,1.0,87,0.00,,,0.01,0,Wunderground v.1.15,2013-01-13 06:28:00,
2013-01-12 22:33:00,29.3,25.9,30.46,East,93,0.0,1.0,87,0.00,,,0.01,0,Wunderground v.1.15,2013-01-13 06:33:00,
2013-01-12 22:38:00,29.3,25.9,30.46,East,93,1.0,2.0,87,0.00,,,0.01,0,Wunderground v.1.15,2013-01-13 06:38:00,
2013-01-12 22:43:00,29.2,25.8,30.46,East,93,2.0,2.0,87,0.00,,,0.01,0,Wunderground v.1.15,2013-01-13 06:43:00,
2013-01-12 22:48:00,29.2,25.8,30.46,East,93,0.0,2.0,87,0.00,,,0.01,0,Wunderground v.1.15,2013-01-13 06:48:00,
2013-01-12 22:53:00,29.2,25.8,30.46,East,93,0.0,2.0,87,0.00,,,0.01,0,Wunderground v.1.15,2013-01-13 06:53:00,
2013-01-12 22:58:00,29.1,25.7,30.46,East,93,0.0,2.0,87,0.00,,,0.01,0,Wunderground v.1.15,2013-01-13 06:58:00,
2013-01-12 23:03:00,29.1,25.7,30.46,East,93,0.0,2.0,87,0.00,,,0.01,0,Wunderground v.1.15,2013-01-13 07:03:00,
2013-01-12 23:08:00,29.0,25.6,30.47,East,93,0.0,2.0,87,0.00,,,0.01,0,Wunderground v.1.15,2013-01-13 07:08:00,
2013-01-12 23:13:00,29.0,25.6,30.47,East,93,0.0,1.0,87,0.00,,,0.01,0,Wunderground v.1.15,2013-01-13 07:13:00,
2013-01-12 23:18:00,28.9,25.5,30.47,East,93,0.0,1.0,87,0.00,,,0.01,0,Wunderground v.1.15,2013-01-13 07:18:00,
2013-01-12 23:23:00,28.9,25.5,30.47,East,93,0.0,1.0,87,0.00,,,0.01,0,Wunderground v.1.15,2013-01-13 07:23:00,
2013-01-12 23:28:00,28.8,25.4,30.47,East,93,1.0,1.0,87,0.00,,,0.01,0,Wunderground v.1.15,2013-01-13 07:28:00,
2013-01-12 23:33:00,28.7,25.3,30.47,East,93,1.0,2.0,87,0.00,,,0.01,0,Wunderground v.1.15,2013-01-13 07:33:00,
2013-01-12 23:38:00,28.6,25.2,30.47,East,93,0.0,2.0,87,0.00,,,0.01,0,Wunderground v.1.15,2013-01-13 07:38:00,
2013-01-12 23:43:00,28.5,24.8,30.48,East,93,1.0,1.0,86,0.00,,,0.01,0,Wunderground v.1.15,2013-01-13 07:43:00,
2013-01-12 23:48:00,28.5,24.8,30.47,East,93,1.0,1.0,86,0.00,,,0.01,0,Wunderground v.1.15,2013-01-13 07:48:00,
2013-01-12 23:53:00,28.4,25.0,30.47,East,93,1.0,1.0,87,0.00,,,0.00,0,Wunderground v.1.15,2013-01-13 07:53:00,
2013-01-12 23:58:00,28.4,25.0,30.47,East,93,0.0,1.0,87,0.00,,,0.00,0,Wunderground v.1.15,2013-01-13 07:58:00,